createdAt,value
2023-02-15T00:00:32.537Z,28.37
2023-02-15T00:02:35.880Z,27.87
2023-02-15T00:04:48.362Z,33.20
2023-02-15T00:06:52.374Z,26.10
2023-02-15T00:08:56.540Z,26.50
2023-02-15T00:11:08.908Z,27.60
2023-02-15T00:13:12.307Z,26.90
2023-02-15T00:15:15.877Z,28.80
2023-02-15T00:17:19.354Z,23.30
2023-02-15T00:19:23.443Z,26.77
2023-02-15T00:21:26.791Z,27.97
2023-02-15T00:23:30.332Z,30.60
2023-02-15T00:25:33.759Z,27.27
2023-02-15T00:27:38.508Z,27.40
2023-02-15T00:29:41.868Z,27.13
2023-02-15T00:31:45.524Z,25.50
2023-02-15T00:33:49.118Z,28.20
2023-02-15T00:35:58.147Z,28.00
2023-02-15T00:38:01.578Z,28.23
2023-02-15T00:40:08.837Z,31.10
2023-02-15T00:42:12.160Z,29.30
2023-02-15T00:44:17.274Z,27.27
2023-02-15T00:46:20.785Z,31.60
2023-02-15T00:48:24.496Z,29.60
2023-02-15T00:50:32.055Z,31.80
2023-02-15T00:52:35.393Z,26.83
2023-02-15T00:54:40.585Z,27.33
2023-02-15T00:56:43.946Z,26.47
2023-02-15T00:58:47.716Z,29.90
2023-02-15T01:00:53.592Z,28.70
2023-02-15T01:02:57.099Z,25.33
2023-02-15T01:05:00.411Z,26.37
2023-02-15T01:07:04.572Z,26.33
2023-02-15T01:09:10.171Z,27.30
2023-02-15T01:11:15.938Z,28.07
2023-02-15T01:13:19.768Z,34.80
2023-02-15T01:15:23.398Z,34.30
2023-02-15T01:17:28.177Z,32.58
2023-02-15T01:19:31.538Z,32.00
2023-02-15T01:21:36.587Z,32.50
2023-02-15T01:23:39.989Z,30.90
2023-02-15T01:25:43.638Z,33.90
2023-02-15T01:27:47.996Z,36.00
2023-02-15T01:29:51.428Z,36.33
2023-02-15T01:31:54.950Z,43.77
2023-02-15T01:34:00.174Z,37.83
2023-02-15T01:36:05.310Z,31.58
2023-02-15T01:38:09.198Z,32.97
2023-02-15T01:40:17.249Z,36.70
2023-02-15T01:42:23.890Z,31.70
2023-02-15T01:44:50.106Z,30.43
2023-02-15T01:46:55.322Z,33.37
2023-02-15T01:49:04.878Z,30.33
2023-02-15T01:51:08.890Z,31.17
2023-02-15T01:53:17.882Z,36.70
2023-02-15T01:55:22.872Z,29.83
2023-02-15T01:57:29.498Z,31.17
2023-02-15T01:59:33.922Z,35.33
2023-02-15T02:01:37.611Z,31.67
2023-02-15T02:06:07.621Z,29.93
2023-02-15T02:08:11.572Z,39.27
2023-02-15T02:10:17.428Z,34.27
2023-02-15T02:12:24.108Z,36.58
2023-02-15T02:14:28.161Z,37.58
2023-02-15T02:16:45.009Z,41.63
2023-02-15T02:19:04.866Z,33.37
2023-02-15T02:21:32.924Z,36.57
2023-02-15T02:23:49.503Z,38.30
2023-02-15T02:26:28.060Z,33.30
2023-02-15T02:28:56.378Z,32.17
2023-02-15T02:31:23.092Z,38.33
2023-02-15T02:33:51.314Z,37.93
2023-02-15T02:36:03.331Z,36.00
2023-02-15T02:38:12.526Z,36.03
2023-02-15T02:40:26.572Z,37.17
2023-02-15T02:42:37.883Z,37.20
2023-02-15T02:44:45.359Z,45.10
2023-02-15T02:46:54.733Z,36.37
2023-02-15T02:48:59.776Z,33.87
2023-02-15T02:51:03.426Z,35.53
2023-02-15T02:53:06.920Z,35.25
2023-02-15T02:55:14.861Z,33.70
2023-02-15T02:57:19.329Z,33.67
2023-02-15T02:59:29.573Z,37.30
2023-02-15T03:01:36.839Z,30.33
2023-02-15T03:03:43.242Z,33.87
2023-02-15T03:05:52.580Z,39.35
2023-02-15T03:07:58.623Z,40.57
2023-02-15T03:10:05.620Z,37.87
2023-02-15T03:12:10.943Z,34.83
2023-02-15T03:14:20.760Z,37.87
2023-02-15T03:16:26.776Z,34.03
2023-02-15T03:18:35.324Z,33.72
2023-02-15T03:20:40.021Z,31.95
2023-02-15T03:22:50.579Z,33.42
2023-02-15T03:25:01.654Z,33.67
2023-02-15T03:27:09.134Z,31.02
2023-02-15T03:29:14.776Z,34.30
2023-02-15T03:31:20.603Z,34.80
2023-02-15T03:33:27.940Z,33.22
2023-02-15T03:35:38.447Z,32.40
2023-02-15T03:37:48.717Z,32.60
2023-02-15T03:39:56.436Z,35.33
2023-02-15T03:42:06.100Z,33.75
2023-02-15T03:44:15.896Z,34.60
2023-02-15T03:46:26.493Z,35.55
2023-02-15T03:48:33.643Z,35.83
2023-02-15T03:50:57.431Z,40.72
2023-02-15T03:53:05.132Z,34.65
2023-02-15T03:55:08.887Z,28.43
2023-02-15T03:57:34.556Z,41.22
2023-02-15T03:59:55.676Z,33.67
2023-02-15T04:02:16.043Z,32.92
2023-02-15T04:04:24.619Z,32.80
2023-02-15T04:06:28.874Z,33.92
2023-02-15T04:08:47.555Z,35.58
2023-02-15T04:10:57.233Z,35.03
2023-02-15T04:13:02.259Z,35.67
2023-02-15T04:15:25.897Z,30.90
2023-02-15T04:17:29.308Z,34.58
2023-02-15T04:19:50.797Z,29.00
2023-02-15T04:22:11.713Z,32.15
2023-02-15T04:24:34.495Z,27.55
2023-02-15T04:26:38.039Z,35.30
2023-02-15T04:28:41.349Z,35.10
2023-02-15T04:30:44.742Z,30.40
2023-02-15T04:32:48.593Z,31.02
2023-02-15T04:34:51.956Z,30.48
2023-02-15T04:36:55.362Z,42.92
2023-02-15T04:38:58.677Z,31.73
2023-02-15T04:41:03.323Z,26.77
2023-02-15T04:43:06.688Z,32.53
2023-02-15T04:45:10.403Z,31.00
2023-02-15T04:47:14.061Z,33.58
2023-02-15T04:49:17.537Z,33.55
2023-02-15T04:51:21.006Z,33.20
2023-02-15T04:53:24.452Z,34.47
2023-02-15T04:55:27.921Z,29.13
2023-02-15T04:57:32.685Z,31.00
2023-02-15T04:59:36.114Z,28.00
2023-02-15T05:01:39.487Z,26.85
2023-02-15T05:03:42.935Z,30.15
2023-02-15T05:05:46.345Z,23.83
2023-02-15T05:07:49.761Z,28.65
2023-02-15T05:09:53.151Z,27.83
2023-02-15T05:11:56.527Z,28.25
2023-02-15T05:14:01.586Z,25.40
2023-02-15T05:16:06.431Z,29.80
2023-02-15T05:18:09.897Z,26.40
2023-02-15T05:20:13.545Z,23.40
2023-02-15T05:22:16.853Z,28.88
2023-02-15T05:24:37.685Z,31.08
2023-02-15T05:26:58.735Z,28.80
2023-02-15T05:29:03.402Z,27.15
2023-02-15T05:31:08.889Z,29.92
2023-02-15T05:33:12.489Z,27.00
2023-02-15T05:35:17.217Z,27.17
2023-02-15T05:37:20.653Z,23.58
2023-02-15T05:39:24.016Z,33.10
2023-02-15T05:41:27.429Z,29.77
2023-02-15T05:43:31.224Z,27.08
2023-02-15T05:45:36.011Z,24.42
2023-02-15T05:47:40.044Z,26.67
2023-02-15T05:49:43.368Z,30.13
2023-02-15T05:51:46.786Z,32.15
2023-02-15T05:53:50.204Z,28.45
2023-02-15T05:55:54.725Z,27.10
2023-02-15T05:57:58.192Z,22.80
2023-02-15T06:00:01.589Z,27.63
2023-02-15T06:02:16.825Z,25.20
2023-02-15T06:04:20.219Z,32.78
2023-02-15T06:06:23.606Z,27.90
2023-02-15T06:08:27.018Z,41.88
2023-02-15T06:10:30.308Z,34.15
2023-02-15T06:12:34.514Z,28.88
2023-02-15T06:14:37.800Z,26.75
2023-02-15T06:16:41.360Z,29.75
2023-02-15T06:18:46.149Z,27.27
2023-02-15T06:20:50.405Z,28.40
2023-02-15T06:22:53.714Z,30.02
2023-02-15T06:24:56.982Z,33.13
2023-02-15T06:27:00.676Z,32.28
2023-02-15T06:29:04.386Z,30.38
2023-02-15T06:31:07.862Z,30.70
2023-02-15T06:33:11.328Z,32.33
2023-02-15T06:35:16.093Z,26.88
2023-02-15T06:37:19.945Z,30.00
2023-02-15T06:39:23.236Z,28.08
2023-02-15T06:41:26.894Z,30.02
2023-02-15T06:43:30.219Z,30.17
2023-02-15T06:45:33.683Z,27.08
2023-02-15T06:47:37.069Z,27.98
2023-02-15T06:49:40.454Z,30.83
2023-02-15T06:51:45.213Z,29.77
2023-02-15T06:53:48.555Z,31.48
2023-02-15T06:55:51.883Z,25.35
2023-02-15T06:57:55.413Z,36.75
2023-02-15T06:59:59.345Z,28.58
2023-02-15T07:02:02.778Z,29.52
2023-02-15T07:04:06.401Z,26.73
2023-02-15T07:06:11.612Z,33.58
2023-02-15T07:08:16.619Z,27.75
2023-02-15T07:10:20.153Z,27.83
2023-02-15T07:12:49.215Z,27.63
2023-02-15T07:14:53.232Z,26.77
2023-02-15T07:16:56.681Z,31.42
2023-02-15T07:19:00.030Z,29.20
2023-02-15T07:21:03.506Z,28.17
2023-02-15T07:23:07.000Z,28.73
2023-02-15T07:25:13.123Z,24.17
2023-02-15T07:27:16.495Z,28.10
2023-02-15T07:29:19.972Z,27.35
2023-02-15T07:31:23.326Z,24.15
2023-02-15T07:33:28.066Z,23.67
2023-02-15T07:35:32.329Z,21.38
2023-02-15T07:37:35.795Z,19.83
2023-02-15T07:39:40.391Z,23.67
2023-02-15T07:41:45.174Z,27.73
2023-02-15T07:43:49.176Z,23.42
2023-02-15T07:45:52.478Z,20.42
2023-02-15T07:47:55.948Z,25.00
2023-02-15T07:49:59.406Z,23.17
2023-02-15T07:52:03.614Z,23.42
2023-02-15T07:54:06.921Z,23.23
2023-02-15T07:56:12.724Z,27.75
2023-02-15T07:58:17.474Z,25.00
2023-02-15T08:00:25.577Z,29.15
2023-02-15T08:02:29.896Z,28.58
2023-02-15T08:04:33.250Z,30.85
2023-02-15T08:06:37.550Z,30.08
2023-02-15T08:08:41.104Z,29.13
2023-02-15T08:11:02.675Z,29.70
2023-02-15T08:13:06.024Z,25.23
2023-02-15T08:15:10.933Z,25.67
2023-02-15T08:17:14.771Z,26.40
2023-02-15T08:19:20.291Z,23.85
2023-02-15T08:21:25.059Z,25.35
2023-02-15T08:23:28.409Z,24.38
2023-02-15T08:25:31.738Z,27.17
2023-02-15T08:27:35.230Z,23.92
2023-02-15T08:29:40.188Z,25.13
2023-02-15T08:31:45.320Z,25.08
2023-02-15T08:33:51.036Z,23.38
2023-02-15T08:35:54.356Z,25.02
2023-02-15T08:37:57.715Z,22.05
2023-02-15T08:40:01.312Z,20.95
2023-02-15T08:42:04.862Z,18.17
2023-02-15T08:44:10.515Z,19.13
2023-02-15T08:46:14.935Z,20.35
2023-02-15T08:48:20.141Z,20.25
2023-02-15T08:50:23.530Z,20.92
2023-02-15T08:52:26.988Z,19.88
2023-02-15T08:54:30.561Z,20.60
2023-02-15T08:56:36.634Z,21.70
2023-02-15T08:58:40.594Z,23.13
2023-02-15T09:00:46.551Z,29.33
2023-02-15T09:02:51.258Z,19.27
2023-02-15T09:04:56.410Z,19.00
2023-02-15T09:06:59.806Z,21.35
2023-02-15T09:09:04.611Z,17.57
2023-02-15T09:11:10.194Z,17.93
2023-02-15T09:13:14.151Z,18.33
2023-02-15T09:15:17.700Z,22.30
2023-02-15T09:17:21.215Z,22.80
2023-02-15T09:19:25.278Z,20.50
2023-02-15T09:21:31.121Z,23.27
2023-02-15T09:23:34.582Z,20.57
2023-02-15T09:25:38.025Z,21.33
2023-02-15T09:27:42.136Z,17.00
2023-02-15T09:29:45.583Z,18.23
2023-02-15T09:31:50.962Z,19.98
2023-02-15T09:33:55.156Z,18.10
2023-02-15T09:35:58.987Z,18.20
2023-02-15T09:38:04.217Z,16.43
2023-02-15T09:40:08.486Z,19.80
2023-02-15T09:42:32.544Z,19.40
2023-02-15T09:44:56.371Z,17.40
2023-02-15T09:47:31.944Z,21.03
2023-02-15T09:49:42.102Z,15.73
2023-02-15T09:52:13.780Z,20.17
2023-02-15T09:54:34.117Z,18.90
2023-02-15T09:56:41.298Z,19.27
2023-02-15T09:58:54.309Z,15.43
2023-02-15T10:01:04.199Z,18.30
2023-02-15T10:03:35.675Z,20.70
2023-02-15T10:05:48.340Z,20.30
2023-02-15T10:08:18.662Z,17.23
2023-02-15T10:10:27.272Z,15.40
2023-02-15T10:12:49.878Z,19.23
2023-02-15T10:15:27.392Z,16.53
2023-02-15T10:17:45.546Z,16.60
2023-02-15T10:20:00.194Z,13.30
2023-02-15T10:22:19.619Z,15.90
2023-02-15T10:24:48.736Z,13.70
2023-02-15T10:27:00.620Z,12.50
2023-02-15T10:29:10.789Z,13.10
2023-02-15T10:31:25.987Z,12.97
2023-02-15T10:33:42.165Z,13.23
2023-02-15T10:35:57.177Z,17.23
2023-02-15T10:38:10.863Z,16.80
2023-02-15T10:40:22.975Z,12.57
2023-02-15T10:42:38.811Z,13.03
2023-02-15T10:44:53.948Z,17.60
2023-02-15T10:47:32.282Z,16.53
2023-02-15T10:49:55.871Z,13.70
2023-02-15T10:52:11.297Z,15.57
2023-02-15T10:54:25.184Z,17.43
2023-02-15T10:56:36.019Z,15.40
2023-02-15T10:58:53.457Z,15.33
2023-02-15T11:01:05.623Z,13.77
2023-02-15T11:03:50.639Z,11.97
2023-02-15T11:06:03.432Z,15.80
2023-02-15T11:08:11.436Z,14.40
2023-02-15T11:10:28.440Z,17.23
2023-02-15T11:12:33.576Z,14.53
2023-02-15T11:14:45.873Z,12.77
2023-02-15T11:16:53.028Z,13.37
2023-02-15T11:19:00.464Z,24.50
2023-02-15T11:21:09.701Z,18.27
2023-02-15T11:23:17.425Z,12.53
2023-02-15T11:25:23.719Z,11.57
2023-02-15T11:27:31.382Z,14.80
2023-02-15T11:29:39.502Z,12.90
2023-02-15T11:31:46.795Z,13.10
2023-02-15T11:33:53.624Z,11.57
2023-02-15T11:36:02.124Z,11.70
2023-02-15T11:38:09.957Z,11.00
2023-02-15T11:40:21.174Z,13.00
2023-02-15T11:42:27.579Z,13.03
2023-02-15T11:44:36.989Z,12.10
2023-02-15T11:46:42.149Z,12.63
2023-02-15T11:48:45.707Z,13.10
2023-02-15T11:50:49.067Z,14.33
2023-02-15T11:52:54.753Z,15.87
2023-02-15T11:54:58.202Z,14.47
2023-02-15T11:57:06.125Z,11.97
2023-02-15T11:59:15.119Z,12.23
2023-02-15T12:01:26.587Z,12.53
2023-02-15T12:03:42.955Z,12.73
2023-02-15T12:05:49.517Z,11.80
2023-02-15T12:07:57.595Z,14.20
2023-02-15T12:10:08.262Z,13.00
2023-02-15T12:12:26.214Z,13.07
2023-02-15T12:14:49.306Z,11.97
2023-02-15T12:16:55.474Z,11.40
2023-02-15T12:19:03.268Z,12.97
2023-02-15T12:21:11.031Z,13.13
2023-02-15T12:23:17.588Z,11.97
2023-02-15T12:25:24.722Z,15.07
2023-02-15T12:27:30.959Z,12.30
2023-02-15T12:29:43.975Z,11.13
2023-02-15T12:31:49.772Z,12.23
2023-02-15T12:33:55.618Z,12.20
2023-02-15T12:36:04.327Z,14.00
2023-02-15T12:38:26.700Z,13.40
2023-02-15T12:40:31.714Z,15.13
2023-02-15T12:42:44.268Z,15.20
2023-02-15T12:45:00.183Z,14.00
2023-02-15T12:47:05.878Z,13.83
2023-02-15T12:49:20.755Z,12.47
2023-02-15T12:51:25.765Z,12.07
2023-02-15T12:53:34.019Z,12.20
2023-02-15T12:55:37.991Z,11.50
2023-02-15T12:57:49.055Z,11.00
2023-02-15T12:59:54.678Z,13.03
2023-02-15T13:01:58.058Z,12.97
2023-02-15T13:04:05.473Z,16.10
2023-02-15T13:06:09.356Z,11.17
2023-02-15T13:08:17.377Z,15.17
2023-02-15T13:10:25.517Z,14.17
2023-02-15T13:12:32.922Z,11.50
2023-02-15T13:14:37.282Z,12.40
2023-02-15T13:16:41.972Z,10.93
2023-02-15T13:18:47.680Z,10.93
2023-02-15T13:20:52.512Z,11.97
2023-02-15T13:23:01.680Z,11.63
2023-02-15T13:25:14.966Z,9.93
2023-02-15T13:27:20.701Z,13.37
2023-02-15T13:29:27.768Z,15.27
2023-02-15T13:31:33.664Z,13.60
2023-02-15T13:33:40.435Z,12.57
2023-02-15T13:35:48.829Z,16.87
2023-02-15T13:38:11.609Z,14.60
2023-02-15T13:40:23.214Z,11.00
2023-02-15T13:42:32.286Z,11.50
2023-02-15T13:44:57.853Z,10.60
2023-02-15T13:47:18.722Z,16.00
2023-02-15T13:49:35.080Z,10.73
2023-02-15T13:51:44.282Z,11.60
2023-02-15T13:54:16.832Z,12.07
2023-02-15T13:56:29.142Z,17.97
2023-02-15T13:59:04.811Z,12.87
2023-02-15T14:01:12.090Z,14.93
2023-02-15T14:03:33.494Z,12.50
2023-02-15T14:05:56.175Z,10.90
2023-02-15T14:08:11.385Z,12.27
2023-02-15T14:10:28.935Z,13.50
2023-02-15T14:12:48.886Z,11.83
2023-02-15T14:15:16.972Z,11.83
2023-02-15T14:17:30.822Z,11.50
2023-02-15T14:19:42.261Z,14.43
2023-02-15T14:21:50.652Z,12.20
2023-02-15T14:24:18.856Z,13.13
2023-02-15T14:26:32.929Z,15.60
2023-02-15T14:28:45.773Z,15.17
2023-02-15T14:30:52.181Z,14.27
2023-02-15T14:32:59.212Z,14.47
2023-02-15T14:35:04.904Z,15.20
2023-02-15T14:37:08.711Z,12.80
2023-02-15T14:39:41.234Z,11.23
2023-02-15T14:41:51.490Z,14.17
2023-02-15T14:44:08.213Z,14.13
2023-02-15T14:46:22.353Z,13.90
2023-02-15T14:48:32.541Z,13.57
2023-02-15T14:50:45.357Z,10.83
2023-02-15T14:53:22.435Z,17.70
2023-02-15T14:55:37.265Z,13.87
2023-02-15T14:57:40.582Z,12.73
2023-02-15T14:59:49.470Z,10.80
2023-02-15T15:01:58.667Z,11.47
2023-02-15T15:04:06.246Z,14.60
2023-02-15T15:06:27.712Z,10.13
2023-02-15T15:08:35.809Z,12.43
2023-02-15T15:10:42.862Z,11.40
2023-02-15T15:12:47.902Z,12.03
2023-02-15T15:14:54.374Z,12.47
2023-02-15T15:16:57.754Z,12.37
2023-02-15T15:19:01.969Z,13.43
2023-02-15T15:21:05.539Z,11.60
2023-02-15T15:23:41.808Z,12.10
2023-02-15T15:25:46.649Z,13.00
2023-02-15T15:27:54.245Z,12.33
2023-02-15T15:29:59.030Z,13.10
2023-02-15T15:32:04.227Z,12.67
2023-02-15T15:34:24.071Z,11.83
2023-02-15T15:37:12.674Z,12.80
2023-02-15T15:39:34.873Z,19.30
2023-02-15T15:41:44.102Z,14.67
2023-02-15T15:44:23.520Z,13.50
2023-02-15T15:46:47.852Z,11.87
2023-02-15T15:48:51.330Z,16.40
2023-02-15T15:50:56.184Z,16.07
2023-02-15T15:53:02.255Z,18.70
2023-02-15T15:55:17.534Z,16.73
2023-02-15T15:57:29.240Z,15.93
2023-02-15T15:59:36.062Z,13.87
2023-02-15T16:01:44.516Z,11.10
2023-02-15T16:03:53.155Z,13.70
2023-02-15T16:06:00.880Z,15.37
2023-02-15T16:08:04.540Z,12.20
2023-02-15T16:10:23.326Z,13.40
2023-02-15T16:12:29.228Z,15.97
2023-02-15T16:14:34.449Z,22.80
2023-02-15T16:16:38.196Z,20.00
2023-02-15T16:18:43.560Z,13.60
2023-02-15T16:20:53.888Z,16.47
2023-02-15T16:23:14.533Z,12.30
2023-02-15T16:25:32.322Z,16.00
2023-02-15T16:27:38.360Z,11.30
2023-02-15T16:29:41.877Z,12.93
2023-02-15T16:31:45.530Z,10.53
2023-02-15T16:33:55.060Z,11.60
2023-02-15T16:36:03.988Z,11.47
2023-02-15T16:38:11.033Z,15.30
2023-02-15T16:40:43.779Z,18.90
2023-02-15T16:42:47.167Z,14.07
2023-02-15T16:44:53.590Z,15.90
2023-02-15T16:46:57.117Z,13.17
2023-02-15T16:49:06.375Z,13.03
2023-02-15T16:51:10.860Z,21.10
2023-02-15T16:53:20.490Z,21.27
2023-02-15T16:55:26.265Z,12.60
2023-02-15T16:57:34.701Z,13.67
2023-02-15T16:59:43.208Z,12.47
2023-02-15T17:01:47.091Z,13.30
2023-02-15T17:03:52.348Z,11.50
2023-02-15T17:05:58.721Z,11.37
2023-02-15T17:08:16.552Z,11.63
2023-02-15T17:10:31.885Z,9.90
2023-02-15T17:12:49.678Z,12.07
2023-02-15T17:14:56.476Z,14.57
2023-02-15T17:17:07.939Z,15.93
2023-02-15T17:19:17.453Z,19.73
2023-02-15T17:21:26.764Z,12.77
2023-02-15T17:23:33.581Z,20.10
2023-02-15T17:25:43.170Z,19.63
2023-02-15T17:27:48.445Z,16.30
2023-02-15T17:29:56.768Z,14.90
2023-02-15T17:32:01.590Z,14.53
2023-02-15T17:34:05.662Z,12.17
2023-02-15T17:36:14.579Z,9.97
2023-02-15T17:38:22.187Z,11.00
2023-02-15T17:40:27.408Z,10.67
2023-02-15T17:42:30.966Z,12.13
2023-02-15T17:44:34.375Z,14.73
2023-02-15T17:46:39.453Z,13.90
2023-02-15T17:48:43.585Z,14.43
2023-02-15T17:50:46.925Z,13.80
2023-02-15T17:52:51.052Z,18.27
2023-02-15T17:55:13.302Z,22.30
2023-02-15T17:57:17.965Z,19.50
2023-02-15T17:59:21.320Z,17.00
2023-02-15T18:01:42.338Z,16.53
2023-02-15T18:04:05.823Z,12.83
2023-02-15T18:06:28.120Z,13.57
2023-02-15T18:08:49.274Z,13.07
2023-02-15T18:11:11.301Z,14.20
2023-02-15T18:13:14.630Z,12.40
2023-02-15T18:15:18.080Z,16.20
2023-02-15T18:17:25.842Z,15.40
2023-02-15T18:19:29.331Z,15.87
2023-02-15T18:21:33.433Z,13.60
2023-02-15T18:23:36.956Z,11.47
2023-02-15T18:25:40.355Z,17.17
2023-02-15T18:27:45.319Z,16.60
2023-02-15T18:29:49.161Z,16.93
2023-02-15T18:31:55.007Z,14.73
2023-02-15T18:34:00.667Z,14.50
2023-02-15T18:36:07.485Z,16.03
2023-02-15T18:38:12.439Z,18.70
2023-02-15T18:40:17.713Z,14.90
2023-02-15T18:42:23.826Z,20.07
2023-02-15T18:44:28.714Z,20.33
2023-02-15T18:46:32.080Z,21.07
2023-02-15T18:48:35.542Z,26.43
2023-02-15T18:50:39.336Z,19.73
2023-02-15T18:52:44.366Z,18.50
2023-02-15T18:54:48.350Z,17.10
2023-02-15T18:56:56.214Z,22.43
2023-02-15T18:58:59.600Z,18.53
2023-02-15T19:01:05.174Z,19.60
2023-02-15T19:03:11.004Z,22.53
2023-02-15T19:05:14.922Z,27.70
2023-02-15T19:07:21.236Z,23.90
2023-02-15T19:09:26.148Z,24.03
2023-02-15T19:11:29.996Z,19.40
2023-02-15T19:13:35.254Z,22.20
2023-02-15T19:15:39.740Z,18.10
2023-02-15T19:17:44.838Z,17.57
2023-02-15T19:19:49.032Z,16.77
2023-02-15T19:21:52.832Z,15.10
2023-02-15T19:24:00.490Z,20.33
2023-02-15T19:26:05.995Z,17.00
2023-02-15T19:28:17.201Z,15.73
2023-02-15T19:30:24.615Z,15.63
2023-02-15T19:32:28.500Z,19.43
2023-02-15T19:34:33.240Z,16.07
2023-02-15T19:36:36.738Z,16.77
2023-02-15T19:38:41.147Z,14.60
2023-02-15T19:40:45.192Z,18.53
2023-02-15T19:42:48.621Z,20.40
2023-02-15T19:44:54.486Z,15.60
2023-02-15T19:46:57.880Z,16.93
2023-02-15T19:49:01.237Z,18.10
2023-02-15T19:51:06.593Z,15.23
2023-02-15T19:53:21.888Z,14.90
2023-02-15T19:55:26.914Z,16.40
2023-02-15T19:57:31.511Z,13.60
2023-02-15T19:59:35.125Z,12.67
2023-02-15T20:01:39.714Z,14.90
2023-02-15T20:03:43.046Z,15.57
2023-02-15T20:05:46.973Z,13.00
2023-02-15T20:07:53.359Z,17.83
2023-02-15T20:09:56.881Z,16.10
2023-02-15T20:12:00.713Z,15.67
2023-02-15T20:14:04.068Z,22.37
2023-02-15T20:16:09.821Z,17.93
2023-02-15T20:18:13.785Z,29.87
2023-02-15T20:20:18.485Z,23.03
2023-02-15T20:22:24.639Z,20.07
2023-02-15T20:24:30.967Z,19.97
2023-02-15T20:26:34.925Z,22.63
2023-02-15T20:28:38.314Z,20.20
2023-02-15T20:30:41.610Z,19.03
2023-02-15T20:32:45.601Z,18.43
2023-02-15T20:34:49.278Z,19.50
2023-02-15T20:36:52.990Z,15.47
2023-02-15T20:38:58.270Z,18.20
2023-02-15T20:41:20.530Z,15.63
2023-02-15T20:43:23.839Z,20.17
2023-02-15T20:45:29.281Z,17.13
2023-02-15T20:47:33.700Z,20.03
2023-02-15T20:49:38.616Z,18.33
2023-02-15T20:51:44.282Z,16.40
2023-02-15T20:53:48.107Z,16.20
2023-02-15T20:55:51.628Z,17.47
2023-02-15T20:57:56.507Z,17.30
2023-02-15T21:00:00.246Z,17.17
2023-02-15T21:02:15.503Z,18.60
2023-02-15T21:04:21.045Z,19.03
2023-02-15T21:06:24.347Z,21.37
2023-02-15T21:08:28.561Z,16.23
2023-02-15T21:10:34.027Z,17.97
2023-02-15T21:12:37.440Z,14.53
2023-02-15T21:14:42.370Z,17.27
2023-02-15T21:16:46.769Z,18.90
2023-02-15T21:18:50.122Z,16.57
2023-02-15T21:20:55.671Z,15.07
2023-02-15T21:23:01.145Z,18.70
2023-02-15T21:25:04.544Z,17.83
2023-02-15T21:27:13.333Z,21.10
2023-02-15T21:29:18.929Z,16.90
2023-02-15T21:31:25.443Z,20.00
2023-02-15T21:33:28.815Z,21.00
2023-02-15T21:35:32.254Z,16.83
2023-02-15T21:37:38.843Z,17.53
2023-02-15T21:39:42.228Z,17.03
2023-02-15T21:42:04.753Z,15.63
2023-02-15T21:44:35.023Z,15.30
2023-02-15T21:46:57.372Z,13.67
2023-02-15T21:49:01.702Z,16.33
2023-02-15T21:51:19.318Z,15.00
2023-02-15T21:53:26.094Z,14.00
2023-02-15T21:55:29.466Z,14.40
2023-02-15T21:57:32.741Z,13.23
2023-02-15T21:59:36.077Z,14.53
2023-02-15T22:01:42.901Z,15.87
2023-02-15T22:03:46.674Z,12.53
2023-02-15T22:05:50.153Z,15.93
2023-02-15T22:07:53.467Z,12.37
2023-02-15T22:09:56.827Z,14.97
2023-02-15T22:12:00.202Z,14.50
2023-02-15T22:14:04.731Z,13.13
2023-02-15T22:16:08.168Z,15.80
2023-02-15T22:18:22.337Z,15.30
2023-02-15T22:20:25.785Z,14.67
2023-02-15T22:22:30.777Z,14.50
2023-02-15T22:24:34.153Z,12.77
2023-02-15T22:26:37.529Z,14.60
2023-02-15T22:28:41.878Z,14.63
2023-02-15T22:30:46.502Z,12.93
2023-02-15T22:32:50.162Z,15.67
2023-02-15T22:34:55.525Z,15.03
2023-02-15T22:36:59.773Z,17.50
2023-02-15T22:39:03.120Z,17.43
2023-02-15T22:41:06.928Z,14.43
2023-02-15T22:43:22.710Z,14.70
2023-02-15T22:45:28.012Z,16.40
2023-02-15T22:47:32.269Z,17.93
2023-02-15T22:49:35.534Z,16.57
2023-02-15T22:51:40.292Z,14.47
2023-02-15T22:53:43.572Z,13.87
2023-02-15T22:55:48.007Z,15.27
2023-02-15T22:57:53.956Z,17.40
2023-02-15T22:59:58.097Z,17.43
2023-02-15T23:02:03.411Z,15.73
2023-02-15T23:04:07.106Z,16.90
2023-02-15T23:06:12.092Z,15.37
2023-02-15T23:08:17.416Z,17.93
2023-02-15T23:10:22.831Z,16.20
2023-02-15T23:12:28.692Z,13.17
2023-02-15T23:14:35.568Z,15.73
2023-02-15T23:16:39.012Z,18.17
2023-02-15T23:18:43.890Z,16.47
2023-02-15T23:20:50.156Z,16.07
2023-02-15T23:22:53.518Z,19.53
2023-02-15T23:24:58.212Z,18.13
2023-02-15T23:27:15.446Z,13.83
2023-02-15T23:29:21.159Z,18.90
2023-02-15T23:31:26.877Z,18.90
2023-02-15T23:33:34.496Z,20.27
2023-02-15T23:35:38.894Z,14.97
2023-02-15T23:37:42.236Z,17.93
2023-02-15T23:40:03.115Z,16.10
2023-02-15T23:42:11.203Z,14.90
2023-02-15T23:44:15.277Z,16.17
2023-02-15T23:46:25.643Z,14.33
2023-02-15T23:48:35.336Z,16.73
2023-02-15T23:50:38.900Z,14.50
2023-02-15T23:52:42.185Z,19.87
2023-02-15T23:54:45.637Z,14.50
2023-02-15T23:56:51.554Z,16.10
2023-02-15T23:58:56.211Z,15.27
